createdAt,value
2022-10-06T05:33:58.538Z,99.90
2022-10-06T05:39:00.606Z,99.90
2022-10-06T05:44:02.455Z,99.90
2022-10-06T05:49:07.925Z,99.90
2022-10-06T05:54:09.798Z,99.90
2022-10-06T05:59:11.636Z,99.90
2022-10-06T06:04:13.725Z,99.90
2022-10-06T06:09:17.441Z,99.90
2022-10-06T06:14:43.990Z,99.90
2022-10-06T06:19:45.828Z,99.90
2022-10-06T06:24:48.312Z,99.90
2022-10-06T06:29:50.458Z,99.90
2022-10-06T06:34:52.849Z,99.90
2022-10-06T06:39:55.026Z,99.90
2022-10-06T06:44:56.807Z,99.90
2022-10-06T06:50:00.075Z,99.90
2022-10-06T06:55:01.897Z,99.90
2022-10-06T07:00:07.994Z,99.90
2022-10-06T07:05:11.532Z,99.90
2022-10-06T07:10:13.486Z,99.90
2022-10-06T07:15:33.710Z,99.90
2022-10-06T07:20:54.277Z,99.90
2022-10-06T07:25:56.101Z,99.90
2022-10-06T07:31:00.784Z,99.90
2022-10-06T07:36:02.779Z,99.90
2022-10-06T07:41:18.875Z,99.90
2022-10-06T07:46:21.816Z,99.90
2022-10-06T07:51:24.840Z,99.90
2022-10-06T07:56:32.563Z,99.90
2022-10-06T08:01:34.421Z,99.90
2022-10-06T08:06:36.412Z,99.90
2022-10-06T08:11:38.192Z,99.90
2022-10-06T08:16:39.976Z,99.90
2022-10-06T08:21:41.856Z,99.90
2022-10-06T08:26:43.988Z,99.90
2022-10-06T08:31:45.905Z,99.90
2022-10-06T08:37:02.375Z,99.90
2022-10-06T08:42:18.529Z,99.90
2022-10-06T08:47:22.782Z,99.90
2022-10-06T08:52:46.883Z,99.90
2022-10-06T08:58:30.458Z,99.90
2022-10-06T09:03:32.321Z,99.90
2022-10-06T09:08:41.722Z,99.90
2022-10-06T09:13:53.315Z,99.90
2022-10-06T09:19:37.773Z,99.90
2022-10-06T09:24:47.524Z,99.90
2022-10-06T09:29:50.645Z,99.90
2022-10-06T09:34:59.864Z,99.90
2022-10-06T09:40:01.751Z,99.90
2022-10-06T09:45:06.680Z,99.90
2022-10-06T09:50:23.537Z,99.90
2022-10-06T09:55:28.719Z,99.90
2022-10-06T10:01:07.214Z,99.90
2022-10-06T10:06:09.149Z,99.90
2022-10-06T10:11:37.524Z,99.90
2022-10-06T10:16:39.463Z,99.90
2022-10-06T10:21:44.646Z,99.90
2022-10-06T10:27:22.765Z,99.90
2022-10-06T10:32:57.568Z,99.90
2022-10-06T10:38:14.418Z,99.90
2022-10-06T10:43:36.159Z,99.90
2022-10-06T10:48:51.581Z,99.90
2022-10-06T10:53:58.610Z,99.90
2022-10-06T10:59:07.207Z,99.00
2022-10-06T11:04:11.674Z,96.40
2022-10-06T11:09:23.256Z,95.00
2022-10-06T11:14:50.131Z,96.20
2022-10-06T11:20:08.856Z,97.10
2022-10-06T11:25:27.553Z,97.40
2022-10-06T11:30:33.815Z,94.60
2022-10-06T11:35:38.252Z,96.20
2022-10-06T11:41:09.815Z,95.00
2022-10-06T11:46:31.111Z,93.40
2022-10-06T11:51:34.161Z,98.50
2022-10-06T11:56:37.838Z,96.00
2022-10-06T12:01:47.807Z,93.10
2022-10-06T12:06:55.526Z,93.00
2022-10-06T12:12:17.956Z,93.20
2022-10-06T12:17:25.552Z,90.30
2022-10-06T12:22:31.330Z,87.90
2022-10-06T12:27:48.781Z,82.70
2022-10-06T12:32:58.246Z,82.90
2022-10-06T12:38:05.483Z,83.00
2022-10-06T12:43:19.511Z,77.20
2022-10-06T12:48:33.329Z,81.10
2022-10-06T12:53:57.466Z,80.00
2022-10-06T12:59:19.887Z,71.80
2022-10-06T13:04:31.879Z,69.10
2022-10-06T13:09:34.458Z,71.00
2022-10-06T13:14:36.678Z,64.10
2022-10-06T13:19:43.802Z,60.80
2022-10-06T13:24:45.622Z,60.50
2022-10-06T13:29:47.444Z,57.20
2022-10-06T13:34:49.329Z,59.00
2022-10-06T13:39:51.157Z,58.70
2022-10-06T13:45:01.087Z,58.70
2022-10-06T13:50:08.510Z,57.40
2022-10-06T13:55:23.116Z,57.90
2022-10-06T14:00:28.842Z,58.20
2022-10-06T14:05:36.478Z,56.30
2022-10-06T14:10:41.273Z,58.50
2022-10-06T14:15:49.155Z,54.30
2022-10-06T14:20:56.562Z,56.80
2022-10-06T14:25:58.766Z,58.40
2022-10-06T14:31:00.894Z,58.20
2022-10-06T14:36:03.244Z,55.00
2022-10-06T14:41:05.017Z,55.60
2022-10-06T14:46:09.619Z,55.60
2022-10-06T14:51:11.452Z,55.60
2022-10-06T14:56:14.836Z,54.90
2022-10-06T15:01:17.635Z,56.60
2022-10-06T15:06:37.937Z,54.70
2022-10-06T15:11:40.578Z,52.90
2022-10-06T15:16:44.427Z,53.40
2022-10-06T15:21:46.393Z,54.70
2022-10-06T15:27:06.960Z,58.30
2022-10-06T15:32:09.587Z,57.20
2022-10-06T15:37:11.433Z,56.80
2022-10-06T15:42:15.487Z,59.20
2022-10-06T15:47:17.681Z,58.00
2022-10-06T15:52:19.515Z,61.60
2022-10-06T15:57:22.135Z,64.90
2022-10-06T16:02:24.099Z,60.20
2022-10-06T16:07:26.014Z,58.90
2022-10-06T16:12:28.629Z,61.00
2022-10-06T16:17:30.546Z,58.80
2022-10-06T16:22:32.345Z,59.90
2022-10-06T16:27:35.326Z,61.20
2022-10-06T16:32:37.305Z,64.30
2022-10-06T16:37:39.411Z,63.40
2022-10-06T16:42:43.525Z,63.20
2022-10-06T16:47:45.555Z,68.10
2022-10-06T16:52:47.446Z,70.30
2022-10-06T16:57:49.412Z,69.00
2022-10-06T17:02:52.716Z,72.70
2022-10-06T17:07:59.052Z,73.50
2022-10-06T17:13:01.174Z,73.80
2022-10-06T17:18:03.118Z,76.10
2022-10-06T17:23:05.075Z,79.30
2022-10-06T17:28:07.331Z,81.00
2022-10-06T17:33:09.472Z,82.40
2022-10-06T17:38:11.382Z,81.20
2022-10-06T17:43:13.244Z,83.60
2022-10-06T17:48:15.285Z,85.10
2022-10-06T17:53:17.765Z,88.40
2022-10-06T17:58:19.691Z,86.10
2022-10-06T18:03:26.513Z,87.90
2022-10-06T18:08:28.424Z,90.70
2022-10-06T18:13:32.211Z,90.20
2022-10-06T18:18:34.256Z,90.90
2022-10-06T18:23:36.546Z,92.90
2022-10-06T18:28:39.850Z,94.60
2022-10-06T18:36:10.715Z,95.50
2022-10-06T18:39:05.193Z,96.40
2022-10-06T18:44:08.614Z,99.80
2022-10-06T18:49:12.583Z,99.90
2022-10-06T18:54:26.908Z,98.70
